sensor_id;sensor_type;location;lat;lon;timestamp;temperature;humidity
17423;DHT22;8829;47.932;7.810;2023-06-05T00:00:39;14.70;99.90
17423;DHT22;8829;47.932;7.810;2023-06-05T00:03:05;14.70;99.90
17423;DHT22;8829;47.932;7.810;2023-06-05T00:05:32;14.60;99.90
17423;DHT22;8829;47.932;7.810;2023-06-05T00:07:59;14.40;99.90
17423;DHT22;8829;47.932;7.810;2023-06-05T00:10:25;14.40;99.90
17423;DHT22;8829;47.932;7.810;2023-06-05T00:12:53;14.30;99.90
17423;DHT22;8829;47.932;7.810;2023-06-05T00:15:21;14.30;99.90
17423;DHT22;8829;47.932;7.810;2023-06-05T00:17:48;14.20;99.90
17423;DHT22;8829;47.932;7.810;2023-06-05T00:20:15;14.40;99.90
17423;DHT22;8829;47.932;7.810;2023-06-05T00:22:41;14.30;99.90
17423;DHT22;8829;47.932;7.810;2023-06-05T00:25:10;14.20;99.90
17423;DHT22;8829;47.932;7.810;2023-06-05T00:27:36;14.20;99.90
17423;DHT22;8829;47.932;7.810;2023-06-05T00:30:07;14.20;99.90
17423;DHT22;8829;47.932;7.810;2023-06-05T00:32:35;14.20;99.90
17423;DHT22;8829;47.932;7.810;2023-06-05T00:35:02;14.10;99.90
17423;DHT22;8829;47.932;7.810;2023-06-05T00:37:29;14.10;99.90
17423;DHT22;8829;47.932;7.810;2023-06-05T00:39:57;14.10;99.90
17423;DHT22;8829;47.932;7.810;2023-06-05T00:42:23;14.00;99.90
17423;DHT22;8829;47.932;7.810;2023-06-05T00:44:52;14.00;99.90
17423;DHT22;8829;47.932;7.810;2023-06-05T00:47:20;14.00;99.90
17423;DHT22;8829;47.932;7.810;2023-06-05T00:49:48;14.00;99.90
17423;DHT22;8829;47.932;7.810;2023-06-05T00:52:16;13.90;99.90
17423;DHT22;8829;47.932;7.810;2023-06-05T00:54:43;13.80;99.90
17423;DHT22;8829;47.932;7.810;2023-06-05T00:57:10;13.70;99.90
17423;DHT22;8829;47.932;7.810;2023-06-05T00:59:37;13.80;99.90
17423;DHT22;8829;47.932;7.810;2023-06-05T01:02:06;13.70;99.90
17423;DHT22;8829;47.932;7.810;2023-06-05T01:04:32;13.70;99.90
17423;DHT22;8829;47.932;7.810;2023-06-05T01:07:03;13.60;99.90
17423;DHT22;8829;47.932;7.810;2023-06-05T01:09:30;13.60;99.90
17423;DHT22;8829;47.932;7.810;2023-06-05T01:12:00;13.50;99.90
17423;DHT22;8829;47.932;7.810;2023-06-05T01:14:31;13.50;99.90
17423;DHT22;8829;47.932;7.810;2023-06-05T01:17:01;13.50;99.90
17423;DHT22;8829;47.932;7.810;2023-06-05T01:19:29;13.50;99.90
17423;DHT22;8829;47.932;7.810;2023-06-05T01:21:56;13.50;99.90
17423;DHT22;8829;47.932;7.810;2023-06-05T01:24:25;13.40;99.90
17423;DHT22;8829;47.932;7.810;2023-06-05T01:27:00;13.30;99.90
17423;DHT22;8829;47.932;7.810;2023-06-05T01:29:34;13.30;99.90
17423;DHT22;8829;47.932;7.810;2023-06-05T01:32:06;13.30;99.90
17423;DHT22;8829;47.932;7.810;2023-06-05T01:34:41;13.20;99.90
17423;DHT22;8829;47.932;7.810;2023-06-05T01:37:09;13.00;99.90
17423;DHT22;8829;47.932;7.810;2023-06-05T01:39:41;13.00;99.90
17423;DHT22;8829;47.932;7.810;2023-06-05T01:42:09;12.90;99.90
17423;DHT22;8829;47.932;7.810;2023-06-05T01:44:37;13.00;99.90
17423;DHT22;8829;47.932;7.810;2023-06-05T01:47:05;13.10;99.90
17423;DHT22;8829;47.932;7.810;2023-06-05T01:49:32;13.10;99.90
17423;DHT22;8829;47.932;7.810;2023-06-05T01:51:59;13.00;99.90
17423;DHT22;8829;47.932;7.810;2023-06-05T01:54:25;13.00;99.90
17423;DHT22;8829;47.932;7.810;2023-06-05T01:56:54;12.90;99.90
17423;DHT22;8829;47.932;7.810;2023-06-05T01:59:21;12.90;99.90
17423;DHT22;8829;47.932;7.810;2023-06-05T02:01:48;12.90;99.90
17423;DHT22;8829;47.932;7.810;2023-06-05T02:04:14;12.90;99.90
17423;DHT22;8829;47.932;7.810;2023-06-05T02:06:44;12.90;99.90
17423;DHT22;8829;47.932;7.810;2023-06-05T02:09:11;12.90;99.90
17423;DHT22;8829;47.932;7.810;2023-06-05T02:11:39;12.80;99.90
17423;DHT22;8829;47.932;7.810;2023-06-05T02:14:09;12.70;99.90
17423;DHT22;8829;47.932;7.810;2023-06-05T02:16:39;12.80;99.90
17423;DHT22;8829;47.932;7.810;2023-06-05T02:19:06;12.80;99.90
17423;DHT22;8829;47.932;7.810;2023-06-05T02:21:33;12.80;99.90
17423;DHT22;8829;47.932;7.810;2023-06-05T02:24:01;12.80;99.90
17423;DHT22;8829;47.932;7.810;2023-06-05T02:26:27;12.70;99.90
17423;DHT22;8829;47.932;7.810;2023-06-05T02:28:54;12.60;99.90
17423;DHT22;8829;47.932;7.810;2023-06-05T02:31:23;12.50;99.90
17423;DHT22;8829;47.932;7.810;2023-06-05T02:33:51;12.50;99.90
17423;DHT22;8829;47.932;7.810;2023-06-05T02:36:19;12.50;99.90
17423;DHT22;8829;47.932;7.810;2023-06-05T02:38:46;12.50;99.90
17423;DHT22;8829;47.932;7.810;2023-06-05T02:41:15;12.50;99.90
17423;DHT22;8829;47.932;7.810;2023-06-05T02:43:42;12.50;99.90
17423;DHT22;8829;47.932;7.810;2023-06-05T02:46:08;12.50;99.90
17423;DHT22;8829;47.932;7.810;2023-06-05T02:48:36;12.50;99.90
17423;DHT22;8829;47.932;7.810;2023-06-05T02:51:03;12.50;99.90
17423;DHT22;8829;47.932;7.810;2023-06-05T02:53:31;12.40;99.90
17423;DHT22;8829;47.932;7.810;2023-06-05T02:55:58;12.50;99.90
17423;DHT22;8829;47.932;7.810;2023-06-05T02:58:27;12.50;99.90
17423;DHT22;8829;47.932;7.810;2023-06-05T03:00:54;12.40;99.90
17423;DHT22;8829;47.932;7.810;2023-06-05T03:03:21;12.40;99.90
17423;DHT22;8829;47.932;7.810;2023-06-05T03:05:52;12.40;99.90
17423;DHT22;8829;47.932;7.810;2023-06-05T03:08:19;12.40;99.90
17423;DHT22;8829;47.932;7.810;2023-06-05T03:10:46;12.40;99.90
17423;DHT22;8829;47.932;7.810;2023-06-05T03:13:12;12.40;99.90
17423;DHT22;8829;47.932;7.810;2023-06-05T03:15:39;12.40;99.90
17423;DHT22;8829;47.932;7.810;2023-06-05T03:18:07;12.30;99.90
17423;DHT22;8829;47.932;7.810;2023-06-05T03:20:34;12.20;99.90
17423;DHT22;8829;47.932;7.810;2023-06-05T03:23:02;12.20;99.90
17423;DHT22;8829;47.932;7.810;2023-06-05T03:25:29;12.20;99.90
17423;DHT22;8829;47.932;7.810;2023-06-05T03:27:56;12.10;99.90
17423;DHT22;8829;47.932;7.810;2023-06-05T03:30:22;12.20;99.90
17423;DHT22;8829;47.932;7.810;2023-06-05T03:32:49;12.30;99.90
17423;DHT22;8829;47.932;7.810;2023-06-05T03:35:16;12.30;99.90
17423;DHT22;8829;47.932;7.810;2023-06-05T03:37:43;12.30;99.90
17423;DHT22;8829;47.932;7.810;2023-06-05T03:40:13;12.30;99.90
17423;DHT22;8829;47.932;7.810;2023-06-05T03:42:39;12.30;99.90
17423;DHT22;8829;47.932;7.810;2023-06-05T03:45:07;12.30;99.90
17423;DHT22;8829;47.932;7.810;2023-06-05T03:47:34;12.30;99.90
17423;DHT22;8829;47.932;7.810;2023-06-05T03:50:01;12.30;99.90
17423;DHT22;8829;47.932;7.810;2023-06-05T03:52:28;12.10;99.90
17423;DHT22;8829;47.932;7.810;2023-06-05T03:54:54;12.10;99.90
17423;DHT22;8829;47.932;7.810;2023-06-05T03:57:22;12.20;99.90
17423;DHT22;8829;47.932;7.810;2023-06-05T03:59:49;12.20;99.90
17423;DHT22;8829;47.932;7.810;2023-06-05T04:02:16;12.30;99.90
17423;DHT22;8829;47.932;7.810;2023-06-05T04:04:43;12.30;99.90
17423;DHT22;8829;47.932;7.810;2023-06-05T04:07:09;12.30;99.90
17423;DHT22;8829;47.932;7.810;2023-06-05T04:09:37;12.30;99.90
17423;DHT22;8829;47.932;7.810;2023-06-05T04:12:05;12.20;99.90
17423;DHT22;8829;47.932;7.810;2023-06-05T04:14:33;12.20;99.90
17423;DHT22;8829;47.932;7.810;2023-06-05T04:16:59;12.30;99.90
17423;DHT22;8829;47.932;7.810;2023-06-05T04:19:27;12.20;99.90
17423;DHT22;8829;47.932;7.810;2023-06-05T04:21:56;12.30;99.90
17423;DHT22;8829;47.932;7.810;2023-06-05T04:24:23;12.40;99.90
17423;DHT22;8829;47.932;7.810;2023-06-05T04:26:53;12.40;99.90
17423;DHT22;8829;47.932;7.810;2023-06-05T04:29:20;12.40;99.90
17423;DHT22;8829;47.932;7.810;2023-06-05T04:31:48;12.50;99.90
17423;DHT22;8829;47.932;7.810;2023-06-05T04:34:15;12.40;99.90
17423;DHT22;8829;47.932;7.810;2023-06-05T04:36:43;12.30;99.90
17423;DHT22;8829;47.932;7.810;2023-06-05T04:39:10;12.20;99.90
17423;DHT22;8829;47.932;7.810;2023-06-05T04:41:40;12.10;99.90
17423;DHT22;8829;47.932;7.810;2023-06-05T04:44:10;12.20;99.90
17423;DHT22;8829;47.932;7.810;2023-06-05T04:46:37;12.40;99.90
17423;DHT22;8829;47.932;7.810;2023-06-05T04:49:06;12.30;99.90
17423;DHT22;8829;47.932;7.810;2023-06-05T04:51:32;12.60;99.90
17423;DHT22;8829;47.932;7.810;2023-06-05T04:53:59;12.70;99.90
17423;DHT22;8829;47.932;7.810;2023-06-05T04:56:26;12.70;99.90
17423;DHT22;8829;47.932;7.810;2023-06-05T04:58:53;12.50;99.90
17423;DHT22;8829;47.932;7.810;2023-06-05T05:01:20;12.40;99.90
17423;DHT22;8829;47.932;7.810;2023-06-05T05:03:47;12.50;99.90
17423;DHT22;8829;47.932;7.810;2023-06-05T05:06:16;12.50;99.90
17423;DHT22;8829;47.932;7.810;2023-06-05T05:08:43;12.60;99.90
17423;DHT22;8829;47.932;7.810;2023-06-05T05:11:13;12.70;99.90
17423;DHT22;8829;47.932;7.810;2023-06-05T05:13:40;12.90;99.90
17423;DHT22;8829;47.932;7.810;2023-06-05T05:16:07;12.80;99.90
17423;DHT22;8829;47.932;7.810;2023-06-05T05:18:34;13.20;99.90
17423;DHT22;8829;47.932;7.810;2023-06-05T05:21:02;13.80;99.90
17423;DHT22;8829;47.932;7.810;2023-06-05T05:23:31;14.10;99.90
17423;DHT22;8829;47.932;7.810;2023-06-05T05:25:58;14.20;99.90
17423;DHT22;8829;47.932;7.810;2023-06-05T05:28:25;14.90;99.90
17423;DHT22;8829;47.932;7.810;2023-06-05T05:30:52;15.50;99.90
17423;DHT22;8829;47.932;7.810;2023-06-05T05:33:18;16.10;99.90
17423;DHT22;8829;47.932;7.810;2023-06-05T05:35:46;16.50;99.90
17423;DHT22;8829;47.932;7.810;2023-06-05T05:38:13;17.00;99.90
17423;DHT22;8829;47.932;7.810;2023-06-05T05:40:41;17.10;99.90
17423;DHT22;8829;47.932;7.810;2023-06-05T05:43:09;17.60;99.90
17423;DHT22;8829;47.932;7.810;2023-06-05T05:45:35;17.60;99.90
17423;DHT22;8829;47.932;7.810;2023-06-05T05:48:04;18.30;99.90
17423;DHT22;8829;47.932;7.810;2023-06-05T05:50:31;18.60;99.90
17423;DHT22;8829;47.932;7.810;2023-06-05T05:52:57;19.20;99.90
17423;DHT22;8829;47.932;7.810;2023-06-05T05:55:24;19.80;99.90
17423;DHT22;8829;47.932;7.810;2023-06-05T05:57:52;20.30;99.90
17423;DHT22;8829;47.932;7.810;2023-06-05T06:00:19;20.70;99.90
17423;DHT22;8829;47.932;7.810;2023-06-05T06:02:46;20.80;99.90
17423;DHT22;8829;47.932;7.810;2023-06-05T06:05:13;21.00;99.90
17423;DHT22;8829;47.932;7.810;2023-06-05T06:07:40;21.30;99.90
17423;DHT22;8829;47.932;7.810;2023-06-05T06:10:08;21.30;99.90
17423;DHT22;8829;47.932;7.810;2023-06-05T06:12:37;21.80;99.90
17423;DHT22;8829;47.932;7.810;2023-06-05T06:15:06;22.10;99.90
17423;DHT22;8829;47.932;7.810;2023-06-05T06:17:33;22.20;99.90
17423;DHT22;8829;47.932;7.810;2023-06-05T06:20:00;22.30;99.90
17423;DHT22;8829;47.932;7.810;2023-06-05T06:22:27;22.40;99.90
17423;DHT22;8829;47.932;7.810;2023-06-05T06:24:54;22.70;99.90
17423;DHT22;8829;47.932;7.810;2023-06-05T06:27:21;23.00;99.90
17423;DHT22;8829;47.932;7.810;2023-06-05T06:29:49;23.20;99.90
17423;DHT22;8829;47.932;7.810;2023-06-05T06:32:19;23.40;99.90
17423;DHT22;8829;47.932;7.810;2023-06-05T06:34:46;23.70;99.90
17423;DHT22;8829;47.932;7.810;2023-06-05T06:37:13;23.60;99.90
17423;DHT22;8829;47.932;7.810;2023-06-05T06:39:40;23.60;99.90
17423;DHT22;8829;47.932;7.810;2023-06-05T06:42:08;23.50;99.90
17423;DHT22;8829;47.932;7.810;2023-06-05T06:44:35;23.80;99.90
17423;DHT22;8829;47.932;7.810;2023-06-05T06:47:02;23.80;99.20
17423;DHT22;8829;47.932;7.810;2023-06-05T06:49:30;23.70;99.90
17423;DHT22;8829;47.932;7.810;2023-06-05T06:51:57;23.70;99.90
17423;DHT22;8829;47.932;7.810;2023-06-05T06:54:23;23.60;99.90
17423;DHT22;8829;47.932;7.810;2023-06-05T06:56:51;23.90;99.80
17423;DHT22;8829;47.932;7.810;2023-06-05T06:59:18;23.40;99.70
17423;DHT22;8829;47.932;7.810;2023-06-05T07:01:47;23.60;99.90
17423;DHT22;8829;47.932;7.810;2023-06-05T07:04:15;23.90;99.90
17423;DHT22;8829;47.932;7.810;2023-06-05T07:06:46;24.20;99.70
17423;DHT22;8829;47.932;7.810;2023-06-05T07:09:14;24.40;99.40
17423;DHT22;8829;47.932;7.810;2023-06-05T07:11:40;24.60;99.70
17423;DHT22;8829;47.932;7.810;2023-06-05T07:14:07;24.70;99.30
17423;DHT22;8829;47.932;7.810;2023-06-05T07:16:34;24.50;99.60
17423;DHT22;8829;47.932;7.810;2023-06-05T07:19:00;24.90;99.20
17423;DHT22;8829;47.932;7.810;2023-06-05T07:21:28;24.90;99.00
17423;DHT22;8829;47.932;7.810;2023-06-05T07:23:56;24.90;99.40
17423;DHT22;8829;47.932;7.810;2023-06-05T07:26:23;25.20;98.60
17423;DHT22;8829;47.932;7.810;2023-06-05T07:28:50;25.50;98.40
17423;DHT22;8829;47.932;7.810;2023-06-05T07:31:17;25.70;98.20
17423;DHT22;8829;47.932;7.810;2023-06-05T07:33:44;25.80;98.30
17423;DHT22;8829;47.932;7.810;2023-06-05T07:36:11;26.10;98.10
17423;DHT22;8829;47.932;7.810;2023-06-05T07:38:37;26.40;97.40
17423;DHT22;8829;47.932;7.810;2023-06-05T07:41:08;26.50;97.40
17423;DHT22;8829;47.932;7.810;2023-06-05T07:43:35;26.90;97.40
17423;DHT22;8829;47.932;7.810;2023-06-05T07:46:01;26.40;96.70
17423;DHT22;8829;47.932;7.810;2023-06-05T07:48:30;26.50;96.90
17423;DHT22;8829;47.932;7.810;2023-06-05T07:50:56;26.90;96.60
17423;DHT22;8829;47.932;7.810;2023-06-05T07:53:23;27.20;95.90
17423;DHT22;8829;47.932;7.810;2023-06-05T07:55:50;27.50;95.60
17423;DHT22;8829;47.932;7.810;2023-06-05T07:58:18;27.40;94.90
17423;DHT22;8829;47.932;7.810;2023-06-05T08:00:46;27.40;95.40
17423;DHT22;8829;47.932;7.810;2023-06-05T08:03:14;27.50;95.00
17423;DHT22;8829;47.932;7.810;2023-06-05T08:05:45;27.50;94.80
17423;DHT22;8829;47.932;7.810;2023-06-05T08:08:12;27.60;94.60
17423;DHT22;8829;47.932;7.810;2023-06-05T08:10:39;27.70;94.60
17423;DHT22;8829;47.932;7.810;2023-06-05T08:13:06;27.30;93.80
17423;DHT22;8829;47.932;7.810;2023-06-05T08:15:34;26.70;95.40
17423;DHT22;8829;47.932;7.810;2023-06-05T08:18:01;26.10;93.70
17423;DHT22;8829;47.932;7.810;2023-06-05T08:20:28;24.10;95.40
17423;DHT22;8829;47.932;7.810;2023-06-05T08:22:55;23.60;98.00
17423;DHT22;8829;47.932;7.810;2023-06-05T08:25:22;24.10;96.80
17423;DHT22;8829;47.932;7.810;2023-06-05T08:27:49;24.90;95.30
17423;DHT22;8829;47.932;7.810;2023-06-05T08:30:16;24.10;95.10
17423;DHT22;8829;47.932;7.810;2023-06-05T08:32:44;23.10;96.30
17423;DHT22;8829;47.932;7.810;2023-06-05T08:35:11;23.40;96.40
17423;DHT22;8829;47.932;7.810;2023-06-05T08:37:38;23.10;96.70
17423;DHT22;8829;47.932;7.810;2023-06-05T08:40:06;23.10;96.80
17423;DHT22;8829;47.932;7.810;2023-06-05T08:42:34;22.80;97.20
17423;DHT22;8829;47.932;7.810;2023-06-05T08:45:01;22.90;97.30
17423;DHT22;8829;47.932;7.810;2023-06-05T08:47:29;23.60;96.60
17423;DHT22;8829;47.932;7.810;2023-06-05T08:50:02;24.10;95.70
17423;DHT22;8829;47.932;7.810;2023-06-05T08:52:32;23.70;96.30
17423;DHT22;8829;47.932;7.810;2023-06-05T08:54:59;23.40;95.40
17423;DHT22;8829;47.932;7.810;2023-06-05T08:57:27;22.70;96.90
17423;DHT22;8829;47.932;7.810;2023-06-05T08:59:54;22.90;96.90
17423;DHT22;8829;47.932;7.810;2023-06-05T09:02:21;23.50;96.70
17423;DHT22;8829;47.932;7.810;2023-06-05T09:04:48;24.20;96.10
17423;DHT22;8829;47.932;7.810;2023-06-05T09:07:16;23.60;95.10
17423;DHT22;8829;47.932;7.810;2023-06-05T09:09:43;23.20;96.30
17423;DHT22;8829;47.932;7.810;2023-06-05T09:12:10;22.90;95.40
17423;DHT22;8829;47.932;7.810;2023-06-05T09:14:37;22.60;96.20
17423;DHT22;8829;47.932;7.810;2023-06-05T09:17:04;22.70;96.10
17423;DHT22;8829;47.932;7.810;2023-06-05T09:19:38;22.50;96.50
17423;DHT22;8829;47.932;7.810;2023-06-05T09:22:07;22.40;97.00
17423;DHT22;8829;47.932;7.810;2023-06-05T09:24:35;21.90;96.80
17423;DHT22;8829;47.932;7.810;2023-06-05T09:27:04;22.00;97.40
17423;DHT22;8829;47.932;7.810;2023-06-05T09:29:32;22.10;97.00
17423;DHT22;8829;47.932;7.810;2023-06-05T09:32:00;21.70;97.40
17423;DHT22;8829;47.932;7.810;2023-06-05T09:34:28;21.60;98.30
17423;DHT22;8829;47.932;7.810;2023-06-05T09:36:56;21.80;98.20
17423;DHT22;8829;47.932;7.810;2023-06-05T09:39:23;21.70;98.00
17423;DHT22;8829;47.932;7.810;2023-06-05T09:41:53;21.60;99.60
17423;DHT22;8829;47.932;7.810;2023-06-05T09:44:20;21.60;99.90
17423;DHT22;8829;47.932;7.810;2023-06-05T09:46:51;21.60;99.80
17423;DHT22;8829;47.932;7.810;2023-06-05T09:49:19;21.50;99.90
17423;DHT22;8829;47.932;7.810;2023-06-05T09:51:47;21.60;99.90
17423;DHT22;8829;47.932;7.810;2023-06-05T09:54:13;21.60;99.90
17423;DHT22;8829;47.932;7.810;2023-06-05T09:56:40;21.50;99.90
17423;DHT22;8829;47.932;7.810;2023-06-05T09:59:12;21.20;99.90
17423;DHT22;8829;47.932;7.810;2023-06-05T10:01:40;21.00;99.90
17423;DHT22;8829;47.932;7.810;2023-06-05T10:04:09;21.20;99.90
17423;DHT22;8829;47.932;7.810;2023-06-05T10:06:37;21.40;99.90
17423;DHT22;8829;47.932;7.810;2023-06-05T10:09:06;21.70;99.90
17423;DHT22;8829;47.932;7.810;2023-06-05T10:11:35;21.80;99.90
17423;DHT22;8829;47.932;7.810;2023-06-05T10:14:03;21.90;99.90
17423;DHT22;8829;47.932;7.810;2023-06-05T10:16:32;22.10;99.90
17423;DHT22;8829;47.932;7.810;2023-06-05T10:18:59;22.30;99.90
17423;DHT22;8829;47.932;7.810;2023-06-05T10:21:26;22.10;99.90
17423;DHT22;8829;47.932;7.810;2023-06-05T10:23:57;22.20;99.90
17423;DHT22;8829;47.932;7.810;2023-06-05T10:26:38;22.20;99.90
17423;DHT22;8829;47.932;7.810;2023-06-05T10:29:18;22.00;99.80
17423;DHT22;8829;47.932;7.810;2023-06-05T10:31:52;21.70;99.90
17423;DHT22;8829;47.932;7.810;2023-06-05T10:34:28;22.00;99.80
17423;DHT22;8829;47.932;7.810;2023-06-05T10:37:13;22.00;99.70
17423;DHT22;8829;47.932;7.810;2023-06-05T10:39:48;22.30;99.90
17423;DHT22;8829;47.932;7.810;2023-06-05T10:42:22;22.70;99.40
17423;DHT22;8829;47.932;7.810;2023-06-05T10:44:49;22.80;98.10
17423;DHT22;8829;47.932;7.810;2023-06-05T10:47:54;22.80;99.60
17423;DHT22;8829;47.932;7.810;2023-06-05T10:50:23;23.10;99.00
17423;DHT22;8829;47.932;7.810;2023-06-05T10:52:53;23.30;97.80
17423;DHT22;8829;47.932;7.810;2023-06-05T10:55:21;23.30;98.10
17423;DHT22;8829;47.932;7.810;2023-06-05T10:58:08;23.50;98.50
17423;DHT22;8829;47.932;7.810;2023-06-05T11:00:36;23.60;97.40
17423;DHT22;8829;47.932;7.810;2023-06-05T11:03:05;23.30;97.60
17423;DHT22;8829;47.932;7.810;2023-06-05T11:05:33;23.20;97.80
17423;DHT22;8829;47.932;7.810;2023-06-05T11:08:13;23.00;97.20
17423;DHT22;8829;47.932;7.810;2023-06-05T11:11:05;23.10;97.40
17423;DHT22;8829;47.932;7.810;2023-06-05T11:13:53;23.40;96.40
17423;DHT22;8829;47.932;7.810;2023-06-05T11:16:28;23.50;96.70
17423;DHT22;8829;47.932;7.810;2023-06-05T11:22:11;23.40;96.70
17423;DHT22;8829;47.932;7.810;2023-06-05T11:24:38;23.60;95.60
17423;DHT22;8829;47.932;7.810;2023-06-05T11:27:05;23.60;95.90
17423;DHT22;8829;47.932;7.810;2023-06-05T11:29:34;23.70;95.50
17423;DHT22;8829;47.932;7.810;2023-06-05T11:32:11;23.90;95.90
17423;DHT22;8829;47.932;7.810;2023-06-05T11:34:38;23.90;95.60
17423;DHT22;8829;47.932;7.810;2023-06-05T11:37:17;23.90;96.20
17423;DHT22;8829;47.932;7.810;2023-06-05T11:39:44;24.10;96.10
17423;DHT22;8829;47.932;7.810;2023-06-05T11:42:11;24.30;94.60
17423;DHT22;8829;47.932;7.810;2023-06-05T11:44:38;24.20;95.50
17423;DHT22;8829;47.932;7.810;2023-06-05T11:47:05;24.30;95.70
17423;DHT22;8829;47.932;7.810;2023-06-05T11:49:32;24.50;94.40
17423;DHT22;8829;47.932;7.810;2023-06-05T11:51:58;24.50;93.60
17423;DHT22;8829;47.932;7.810;2023-06-05T11:54:29;24.40;93.50
17423;DHT22;8829;47.932;7.810;2023-06-05T11:56:57;24.40;93.90
17423;DHT22;8829;47.932;7.810;2023-06-05T11:59:24;24.20;92.70
17423;DHT22;8829;47.932;7.810;2023-06-05T12:01:51;24.00;92.70
17423;DHT22;8829;47.932;7.810;2023-06-05T12:04:20;24.00;93.70
17423;DHT22;8829;47.932;7.810;2023-06-05T12:06:47;24.20;93.50
17423;DHT22;8829;47.932;7.810;2023-06-05T12:09:14;24.40;92.20
17423;DHT22;8829;47.932;7.810;2023-06-05T12:11:43;24.40;91.90
17423;DHT22;8829;47.932;7.810;2023-06-05T12:14:12;24.40;92.80
17423;DHT22;8829;47.932;7.810;2023-06-05T12:16:40;24.50;92.50
17423;DHT22;8829;47.932;7.810;2023-06-05T12:19:12;24.40;91.90
17423;DHT22;8829;47.932;7.810;2023-06-05T12:21:39;24.40;91.60
17423;DHT22;8829;47.932;7.810;2023-06-05T12:24:06;24.40;91.30
17423;DHT22;8829;47.932;7.810;2023-06-05T12:26:53;24.40;92.50
17423;DHT22;8829;47.932;7.810;2023-06-05T12:29:22;24.40;92.00
17423;DHT22;8829;47.932;7.810;2023-06-05T12:31:49;24.30;91.60
17423;DHT22;8829;47.932;7.810;2023-06-05T12:34:16;24.40;92.50
17423;DHT22;8829;47.932;7.810;2023-06-05T12:36:43;24.50;93.00
17423;DHT22;8829;47.932;7.810;2023-06-05T12:39:11;24.60;93.40
17423;DHT22;8829;47.932;7.810;2023-06-05T12:41:38;24.70;91.50
17423;DHT22;8829;47.932;7.810;2023-06-05T12:44:06;24.80;92.20
17423;DHT22;8829;47.932;7.810;2023-06-05T12:46:34;24.60;90.90
17423;DHT22;8829;47.932;7.810;2023-06-05T12:49:04;24.60;92.10
17423;DHT22;8829;47.932;7.810;2023-06-05T12:51:31;24.70;92.60
17423;DHT22;8829;47.932;7.810;2023-06-05T12:53:57;24.80;92.20
17423;DHT22;8829;47.932;7.810;2023-06-05T12:56:25;24.90;92.30
17423;DHT22;8829;47.932;7.810;2023-06-05T12:58:54;25.10;91.20
17423;DHT22;8829;47.932;7.810;2023-06-05T13:01:23;25.00;90.40
17423;DHT22;8829;47.932;7.810;2023-06-05T13:03:50;24.70;90.60
17423;DHT22;8829;47.932;7.810;2023-06-05T13:06:17;24.70;91.20
17423;DHT22;8829;47.932;7.810;2023-06-05T13:08:44;24.70;90.40
17423;DHT22;8829;47.932;7.810;2023-06-05T13:11:12;24.50;90.70
17423;DHT22;8829;47.932;7.810;2023-06-05T13:13:39;24.50;90.40
17423;DHT22;8829;47.932;7.810;2023-06-05T13:16:07;24.60;90.70
17423;DHT22;8829;47.932;7.810;2023-06-05T13:18:35;24.60;90.20
17423;DHT22;8829;47.932;7.810;2023-06-05T13:21:03;24.80;90.90
17423;DHT22;8829;47.932;7.810;2023-06-05T13:23:30;24.90;90.30
17423;DHT22;8829;47.932;7.810;2023-06-05T13:25:57;24.80;90.00
17423;DHT22;8829;47.932;7.810;2023-06-05T13:28:24;24.50;90.00
17423;DHT22;8829;47.932;7.810;2023-06-05T13:30:50;24.60;90.90
17423;DHT22;8829;47.932;7.810;2023-06-05T13:33:18;24.60;90.90
17423;DHT22;8829;47.932;7.810;2023-06-05T13:35:47;24.60;90.80
17423;DHT22;8829;47.932;7.810;2023-06-05T13:38:13;24.70;90.80
17423;DHT22;8829;47.932;7.810;2023-06-05T13:40:40;24.90;90.10
17423;DHT22;8829;47.932;7.810;2023-06-05T13:43:12;24.90;90.70
17423;DHT22;8829;47.932;7.810;2023-06-05T13:45:39;25.00;90.50
17423;DHT22;8829;47.932;7.810;2023-06-05T13:48:06;24.80;90.00
17423;DHT22;8829;47.932;7.810;2023-06-05T13:50:32;24.80;90.30
17423;DHT22;8829;47.932;7.810;2023-06-05T13:53:00;25.00;90.50
17423;DHT22;8829;47.932;7.810;2023-06-05T13:55:27;25.00;90.40
17423;DHT22;8829;47.932;7.810;2023-06-05T13:57:54;25.10;90.50
17423;DHT22;8829;47.932;7.810;2023-06-05T14:00:21;25.10;90.10
17423;DHT22;8829;47.932;7.810;2023-06-05T14:02:48;25.10;90.10
17423;DHT22;8829;47.932;7.810;2023-06-05T14:05:15;25.10;90.10
17423;DHT22;8829;47.932;7.810;2023-06-05T14:07:41;25.20;90.80
17423;DHT22;8829;47.932;7.810;2023-06-05T14:10:10;25.30;90.90
17423;DHT22;8829;47.932;7.810;2023-06-05T14:12:36;25.30;89.70
17423;DHT22;8829;47.932;7.810;2023-06-05T14:15:04;25.20;90.30
17423;DHT22;8829;47.932;7.810;2023-06-05T14:17:30;25.20;90.00
17423;DHT22;8829;47.932;7.810;2023-06-05T14:19:57;25.30;89.50
17423;DHT22;8829;47.932;7.810;2023-06-05T14:22:24;25.40;87.70
17423;DHT22;8829;47.932;7.810;2023-06-05T14:24:51;25.40;90.10
17423;DHT22;8829;47.932;7.810;2023-06-05T14:27:19;25.40;89.30
17423;DHT22;8829;47.932;7.810;2023-06-05T14:29:46;25.30;88.90
17423;DHT22;8829;47.932;7.810;2023-06-05T14:32:12;25.20;89.30
17423;DHT22;8829;47.932;7.810;2023-06-05T14:34:39;25.20;89.80
17423;DHT22;8829;47.932;7.810;2023-06-05T14:37:06;25.10;90.00
17423;DHT22;8829;47.932;7.810;2023-06-05T14:39:32;25.20;88.80
17423;DHT22;8829;47.932;7.810;2023-06-05T14:42:00;25.30;89.30
17423;DHT22;8829;47.932;7.810;2023-06-05T14:44:28;25.30;89.90
17423;DHT22;8829;47.932;7.810;2023-06-05T14:46:55;25.30;90.30
17423;DHT22;8829;47.932;7.810;2023-06-05T14:49:22;25.30;90.20
17423;DHT22;8829;47.932;7.810;2023-06-05T14:51:49;25.20;90.50
17423;DHT22;8829;47.932;7.810;2023-06-05T14:54:16;25.20;90.00
17423;DHT22;8829;47.932;7.810;2023-06-05T14:56:42;25.20;90.20
17423;DHT22;8829;47.932;7.810;2023-06-05T14:59:09;25.30;90.30
17423;DHT22;8829;47.932;7.810;2023-06-05T15:01:37;25.20;90.70
17423;DHT22;8829;47.932;7.810;2023-06-05T15:04:04;25.30;90.90
17423;DHT22;8829;47.932;7.810;2023-06-05T15:06:30;25.40;90.50
17423;DHT22;8829;47.932;7.810;2023-06-05T15:08:57;25.40;90.50
17423;DHT22;8829;47.932;7.810;2023-06-05T15:11:24;25.30;90.50
17423;DHT22;8829;47.932;7.810;2023-06-05T15:13:50;25.20;90.70
17423;DHT22;8829;47.932;7.810;2023-06-05T15:16:17;25.00;90.50
17423;DHT22;8829;47.932;7.810;2023-06-05T15:18:46;24.90;91.10
17423;DHT22;8829;47.932;7.810;2023-06-05T15:21:13;24.90;90.90
17423;DHT22;8829;47.932;7.810;2023-06-05T15:23:39;24.90;91.20
17423;DHT22;8829;47.932;7.810;2023-06-05T15:26:06;24.90;91.60
17423;DHT22;8829;47.932;7.810;2023-06-05T15:28:33;24.80;91.70
17423;DHT22;8829;47.932;7.810;2023-06-05T15:31:00;24.90;92.10
17423;DHT22;8829;47.932;7.810;2023-06-05T15:33:26;24.90;92.20
17423;DHT22;8829;47.932;7.810;2023-06-05T15:35:54;25.00;92.40
17423;DHT22;8829;47.932;7.810;2023-06-05T15:38:21;25.20;92.30
17423;DHT22;8829;47.932;7.810;2023-06-05T15:40:47;25.20;92.40
17423;DHT22;8829;47.932;7.810;2023-06-05T15:43:15;25.20;92.80
17423;DHT22;8829;47.932;7.810;2023-06-05T15:45:42;25.10;93.00
17423;DHT22;8829;47.932;7.810;2023-06-05T15:48:10;25.20;93.70
17423;DHT22;8829;47.932;7.810;2023-06-05T15:50:36;25.40;93.60
17423;DHT22;8829;47.932;7.810;2023-06-05T15:53:06;25.60;93.70